Time;durP1;ratioP1;P1;durP2;ratioP2;P2;SDS_P1;SDS_P2;PMS_P1;PMS_P2;Temp;Humidity;BMP_temperature;BMP_pressure;BME280_temperature;BME280_humidity;BME280_pressure;Samples;Min_cycle;Max_cycle;Signal;HPM_P1;HPM_P2
2023/03/19 00:00:33;;;;;;;3.87;3.53;;;23.50;52.50;;;;;;5080798;28;20491;-83
2023/03/19 00:03:01;;;;;;;4.80;3.30;;;23.50;52.50;;;;;;5074377;28;20524;-83
2023/03/19 00:05:30;;;;;;;3.60;3.30;;;23.50;52.50;;;;;;5065519;28;20455;-83
2023/03/19 00:07:58;;;;;;;3.77;3.00;;;23.50;52.50;;;;;;5073202;28;20446;-83
2023/03/19 00:10:26;;;;;;;3.80;3.40;;;23.50;52.60;;;;;;5073057;28;20438;-83
2023/03/19 00:12:55;;;;;;;3.47;3.17;;;23.50;52.60;;;;;;5072964;28;20447;-83
2023/03/19 00:15:23;;;;;;;3.70;3.27;;;23.50;52.60;;;;;;5073221;28;20454;-83
2023/03/19 00:17:53;;;;;;;3.30;3.10;;;23.50;52.60;;;;;;5073123;28;20451;-83
2023/03/19 00:20:21;;;;;;;4.00;3.40;;;23.50;52.60;;;;;;5063859;28;20500;-83
2023/03/19 00:22:49;;;;;;;3.90;3.60;;;23.50;52.60;;;;;;5072347;28;20557;-83
2023/03/19 00:25:17;;;;;;;3.20;3.00;;;23.50;52.60;;;;;;5060252;28;20484;-82
2023/03/19 00:27:46;;;;;;;3.43;3.23;;;23.50;52.60;;;;;;5072724;28;20471;-83
2023/03/19 00:30:14;;;;;;;3.73;3.43;;;23.50;52.60;;;;;;5065227;28;20466;-82
2023/03/19 00:32:42;;;;;;;3.23;3.03;;;23.50;52.60;;;;;;5054856;28;20459;-82
2023/03/19 00:35:12;;;;;;;3.97;3.63;;;23.50;52.60;;;;;;5072589;28;20960;-82
2023/03/19 00:37:41;;;;;;;3.93;3.47;;;23.50;52.60;;;;;;5058619;28;20454;-83
2023/03/19 00:40:11;;;;;;;3.90;3.60;;;23.40;52.60;;;;;;5074354;28;20493;-83
2023/03/19 00:42:40;;;;;;;3.17;2.93;;;23.50;52.60;;;;;;5069049;28;20533;-83
2023/03/19 00:45:09;;;;;;;3.37;3.17;;;23.50;52.60;;;;;;5071383;28;20458;-82
2023/03/19 00:47:37;;;;;;;3.33;3.03;;;23.40;52.60;;;;;;5072171;28;20438;-82
2023/03/19 00:50:07;;;;;;;3.23;3.00;;;23.40;52.60;;;;;;5072120;28;20478;-82
2023/03/19 00:52:36;;;;;;;3.20;2.77;;;23.40;52.60;;;;;;5052450;28;20486;-83
2023/03/19 00:55:05;;;;;;;5.27;3.37;;;23.40;52.60;;;;;;5063885;28;20482;-82
2023/03/19 00:57:33;;;;;;;3.40;3.10;;;23.40;52.60;;;;;;5070163;28;20455;-83
2023/03/19 01:00:02;;;;;;;3.83;3.53;;;23.40;52.60;;;;;;5048298;28;20465;-83
2023/03/19 01:02:31;;;;;;;2.90;2.70;;;23.40;52.60;;;;;;5070443;28;21027;-83
2023/03/19 01:04:59;;;;;;;3.33;3.13;;;23.40;52.60;;;;;;5060659;28;20459;-83
2023/03/19 01:07:27;;;;;;;3.50;3.20;;;23.40;52.60;;;;;;5072571;28;20458;-83
2023/03/19 01:09:57;;;;;;;3.53;3.30;;;23.40;52.60;;;;;;5053628;28;20885;-83
2023/03/19 01:12:26;;;;;;;3.20;3.00;;;23.40;52.60;;;;;;5072686;28;20495;-83
2023/03/19 01:14:54;;;;;;;3.13;2.93;;;23.40;52.60;;;;;;5072019;28;20545;-83
2023/03/19 01:17:22;;;;;;;3.07;2.87;;;23.40;52.60;;;;;;5052790;28;20666;-83
2023/03/19 01:19:51;;;;;;;3.13;2.90;;;23.40;52.60;;;;;;5053630;28;20546;-82
2023/03/19 01:22:19;;;;;;;3.87;3.20;;;23.40;52.60;;;;;;5067624;28;20566;-83
2023/03/19 01:24:53;;;;;;;3.63;3.33;;;23.40;52.60;;;;;;5054098;28;20482;-83
2023/03/19 01:27:23;;;;;;;2.93;2.73;;;23.40;52.60;;;;;;5054693;28;20823;-82
2023/03/19 01:29:51;;;;;;;3.43;3.20;;;23.40;52.70;;;;;;5071623;28;20464;-83
2023/03/19 01:32:52;;;;;;;3.67;3.37;;;23.40;52.60;;;;;;5044297;28;20937;-82
2023/03/19 01:35:38;;;;;;;4.00;3.70;;;23.40;52.60;;;;;;5047664;28;20851;-82
2023/03/19 01:38:06;;;;;;;3.83;3.53;;;23.30;52.70;;;;;;5038452;28;21004;-82
2023/03/19 01:40:35;;;;;;;3.47;3.17;;;23.40;52.60;;;;;;5053929;28;20863;-82
2023/03/19 01:43:17;;;;;;;3.07;2.87;;;23.30;52.70;;;;;;5042289;28;20479;-82
2023/03/19 01:45:50;;;;;;;3.10;2.80;;;23.30;52.60;;;;;;5034026;28;20966;-83
2023/03/19 01:48:41;;;;;;;3.90;3.60;;;23.40;52.60;;;;;;5053285;28;20454;-82
2023/03/19 01:51:17;;;;;;;3.33;3.13;;;23.30;52.70;;;;;;5033215;28;20463;-82
2023/03/19 01:54:10;;;;;;;3.33;3.13;;;23.30;52.70;;;;;;5066357;28;20492;-83
2023/03/19 01:57:05;;;;;;;3.40;3.10;;;23.30;52.60;;;;;;5060917;28;20813;-83
2023/03/19 02:00:07;;;;;;;3.93;3.63;;;23.30;52.70;;;;;;5043682;28;20463;-83
2023/03/19 02:02:49;;;;;;;3.80;3.27;;;23.30;52.60;;;;;;5058471;28;20482;-83
2023/03/19 02:05:57;;;;;;;2.87;2.67;;;23.30;52.70;;;;;;5009375;28;20551;-83
2023/03/19 02:08:27;;;;;;;3.40;3.10;;;23.30;52.70;;;;;;4981521;28;20486;-83
2023/03/19 02:10:59;;;;;;;4.33;3.77;;;23.30;52.70;;;;;;5011483;28;20558;-83
2023/03/19 02:13:27;;;;;;;3.73;3.43;;;23.30;52.60;;;;;;5051321;28;20918;-83
2023/03/19 02:15:57;;;;;;;4.00;3.70;;;23.30;52.70;;;;;;5058689;28;20458;-83
2023/03/19 02:18:26;;;;;;;3.50;3.23;;;23.30;52.70;;;;;;5072778;28;20500;-83
2023/03/19 02:21:03;;;;;;;3.33;3.03;;;23.30;52.70;;;;;;5069184;28;20451;-82
2023/03/19 02:23:37;;;;;;;4.67;3.40;;;23.30;52.70;;;;;;5045491;28;20475;-82
2023/03/19 02:26:16;;;;;;;3.67;3.07;;;23.30;52.60;;;;;;5071194;28;20430;-82
2023/03/19 02:28:48;;;;;;;3.10;2.90;;;23.30;52.70;;;;;;5033505;28;20460;-82
2023/03/19 02:31:22;;;;;;;3.60;3.30;;;23.30;52.70;;;;;;5047199;28;20466;-83
2023/03/19 02:33:59;;;;;;;3.30;3.00;;;23.30;52.70;;;;;;5051814;28;20945;-83
2023/03/19 02:36:32;;;;;;;3.50;3.30;;;23.30;52.60;;;;;;5078290;28;20923;-82
2023/03/19 02:39:03;;;;;;;3.37;3.07;;;23.30;52.60;;;;;;5072726;28;20913;-83
2023/03/19 02:41:34;;;;;;;3.10;2.90;;;23.30;52.60;;;;;;5070159;28;21006;-82
2023/03/19 02:44:04;;;;;;;3.57;3.27;;;23.30;52.60;;;;;;5050586;28;20431;-83
2023/03/19 02:46:32;;;;;;;3.67;3.33;;;23.30;52.60;;;;;;5060795;28;20485;-82
2023/03/19 02:49:00;;;;;;;3.13;2.90;;;23.30;52.60;;;;;;5042310;28;20488;-83
2023/03/19 02:51:30;;;;;;;3.20;2.97;;;23.30;52.60;;;;;;5061139;28;20490;-82
2023/03/19 02:53:59;;;;;;;4.17;3.00;;;23.20;52.60;;;;;;5070232;28;20477;-82
2023/03/19 02:56:28;;;;;;;2.90;2.70;;;23.20;52.60;;;;;;5055743;28;20511;-83
2023/03/19 02:58:57;;;;;;;2.77;2.60;;;23.20;52.60;;;;;;5062913;28;20443;-83
2023/03/19 03:01:25;;;;;;;3.43;3.23;;;23.20;52.70;;;;;;5053114;28;20691;-83
2023/03/19 03:03:54;;;;;;;3.27;3.03;;;23.20;52.60;;;;;;5072752;28;20532;-82
2023/03/19 03:06:22;;;;;;;3.03;2.73;;;23.20;52.70;;;;;;5057405;28;20872;-83
2023/03/19 03:08:51;;;;;;;3.43;3.23;;;23.20;52.70;;;;;;5081916;28;20842;-82
2023/03/19 03:11:19;;;;;;;3.83;3.53;;;23.20;52.70;;;;;;5066376;28;20453;-83
2023/03/19 03:13:47;;;;;;;3.07;2.80;;;23.20;52.70;;;;;;5057044;28;20493;-82
2023/03/19 03:16:16;;;;;;;3.60;3.27;;;23.20;52.70;;;;;;5074832;28;20921;-83
2023/03/19 03:18:44;;;;;;;3.63;3.43;;;23.20;52.70;;;;;;5073974;28;20543;-83
2023/03/19 03:21:13;;;;;;;4.10;3.80;;;23.20;52.60;;;;;;5081633;28;20481;-83
2023/03/19 03:23:41;;;;;;;3.07;2.87;;;23.20;52.70;;;;;;5068215;28;20958;-82
2023/03/19 03:26:09;;;;;;;3.80;3.50;;;23.20;52.70;;;;;;5066436;28;20473;-82
2023/03/19 03:28:37;;;;;;;3.57;3.13;;;23.20;52.60;;;;;;5078944;28;20460;-83
2023/03/19 03:31:06;;;;;;;3.47;3.23;;;23.20;52.60;;;;;;5053208;28;20897;-83
2023/03/19 03:33:36;;;;;;;3.20;2.90;;;23.20;52.70;;;;;;5081095;28;20449;-83
2023/03/19 03:36:05;;;;;;;3.50;3.20;;;23.20;52.70;;;;;;5067752;28;20463;-82
2023/03/19 03:38:34;;;;;;;3.60;3.30;;;23.10;52.70;;;;;;5036666;28;20896;-82
2023/03/19 03:41:02;;;;;;;3.33;3.03;;;23.10;52.70;;;;;;5060947;28;20474;-83
2023/03/19 03:43:30;;;;;;;3.63;3.33;;;23.10;52.70;;;;;;5073343;28;20473;-83
2023/03/19 03:45:59;;;;;;;3.60;3.40;;;23.10;52.70;;;;;;5060177;28;20531;-83
2023/03/19 03:48:27;;;;;;;3.60;3.30;;;23.10;52.70;;;;;;5069768;28;20461;-83
2023/03/19 03:50:57;;;;;;;3.73;3.30;;;23.10;52.70;;;;;;5051965;28;20472;-82
2023/03/19 03:53:27;;;;;;;3.70;3.40;;;23.10;52.70;;;;;;5055439;28;20462;-83
2023/03/19 03:55:55;;;;;;;3.53;3.23;;;23.10;52.70;;;;;;5056508;28;20818;-83
2023/03/19 03:58:26;;;;;;;3.40;3.10;;;23.10;52.60;;;;;;5045070;28;20467;-83
2023/03/19 04:00:55;;;;;;;4.07;3.60;;;23.10;52.60;;;;;;5056881;28;20534;-83
2023/03/19 04:03:24;;;;;;;3.57;3.27;;;23.10;52.70;;;;;;5047998;28;21360;-83
2023/03/19 04:05:53;;;;;;;2.93;2.73;;;23.10;52.70;;;;;;5056134;28;20462;-83
2023/03/19 04:08:23;;;;;;;3.03;2.83;;;23.10;52.70;;;;;;5055476;28;20472;-82
2023/03/19 04:10:52;;;;;;;3.60;3.30;;;23.10;52.70;;;;;;5054375;28;20465;-83
2023/03/19 04:13:20;;;;;;;3.97;3.67;;;23.10;52.70;;;;;;5047006;28;20459;-82
2023/03/19 04:15:48;;;;;;;4.00;3.70;;;23.10;52.60;;;;;;5055208;28;20454;-83
2023/03/19 04:18:16;;;;;;;3.47;3.17;;;23.10;52.70;;;;;;5055214;28;20458;-83
2023/03/19 04:20:45;;;;;;;3.20;3.00;;;23.10;52.60;;;;;;5073298;28;20437;-83
2023/03/19 04:23:13;;;;;;;3.20;2.90;;;23.10;52.60;;;;;;5043003;28;20467;-83
2023/03/19 04:25:43;;;;;;;3.30;3.10;;;23.10;52.60;;;;;;5050083;28;20491;-83
2023/03/19 04:28:11;;;;;;;3.23;2.93;;;23.10;52.60;;;;;;5073449;28;20434;-83
2023/03/19 04:30:39;;;;;;;3.60;3.30;;;23.10;52.70;;;;;;5072709;28;20521;-83
2023/03/19 04:33:08;;;;;;;3.40;3.10;;;23.10;52.70;;;;;;5033830;28;20470;-83
2023/03/19 04:35:36;;;;;;;3.53;3.23;;;23.10;52.70;;;;;;5035236;28;20506;-83
2023/03/19 04:38:04;;;;;;;3.43;3.13;;;23.10;52.70;;;;;;5035029;28;20442;-83
2023/03/19 04:40:32;;;;;;;3.50;2.90;;;23.00;52.70;;;;;;5045281;28;20508;-83
2023/03/19 04:43:02;;;;;;;3.70;3.40;;;23.10;52.70;;;;;;5042825;28;20481;-82
2023/03/19 04:45:36;;;;;;;2.80;2.60;;;23.00;52.70;;;;;;5055218;28;20946;-83
2023/03/19 04:48:05;;;;;;;2.70;2.50;;;23.00;52.70;;;;;;5036374;28;20493;-83
2023/03/19 04:50:35;;;;;;;3.30;3.10;;;23.00;52.70;;;;;;5053839;28;20484;-83
2023/03/19 04:53:03;;;;;;;3.30;3.10;;;23.00;52.70;;;;;;5032874;28;20502;-83
2023/03/19 04:55:32;;;;;;;3.20;3.00;;;23.10;52.80;;;;;;5053910;28;20543;-83
2023/03/19 04:58:09;;;;;;;3.20;2.90;;;23.10;52.80;;;;;;5054114;28;20511;-83
2023/03/19 05:00:38;;;;;;;3.10;2.77;;;23.10;52.80;;;;;;5054690;28;20446;-83
2023/03/19 05:03:07;;;;;;;3.10;2.90;;;23.10;52.60;;;;;;5053798;28;20469;-83
2023/03/19 05:05:36;;;;;;;3.30;3.00;;;23.10;52.70;;;;;;5054275;28;20454;-83
2023/03/19 05:08:08;;;;;;;3.03;2.77;;;23.10;52.60;;;;;;5046273;28;20899;-83
2023/03/19 05:10:37;;;;;;;3.57;3.13;;;23.10;52.80;;;;;;5053840;28;20529;-83
2023/03/19 05:13:06;;;;;;;3.00;2.80;;;23.10;52.70;;;;;;5054067;28;20508;-83
2023/03/19 05:15:43;;;;;;;2.90;2.70;;;23.20;52.60;;;;;;5055249;28;20480;-83
2023/03/19 05:18:13;;;;;;;3.17;2.97;;;23.10;52.50;;;;;;5053497;28;20454;-83
2023/03/19 05:20:44;;;;;;;3.50;3.20;;;23.10;52.50;;;;;;5071985;28;20528;-83
2023/03/19 05:23:22;;;;;;;3.30;3.00;;;23.10;52.50;;;;;;5053861;28;20481;-83
2023/03/19 05:25:58;;;;;;;2.50;2.30;;;23.10;52.50;;;;;;5039927;28;20561;-83
2023/03/19 05:28:47;;;;;;;3.13;2.93;;;23.10;52.50;;;;;;5058337;28;20460;-83
2023/03/19 05:31:21;;;;;;;2.73;2.63;;;23.10;52.50;;;;;;5057072;28;20519;-82
2023/03/19 05:33:52;;;;;;;2.90;2.80;;;23.10;52.50;;;;;;5057937;28;20470;-82
2023/03/19 05:36:21;;;;;;;2.87;2.67;;;23.10;52.50;;;;;;5054277;28;20506;-83
2023/03/19 05:39:00;;;;;;;2.83;2.63;;;23.10;52.50;;;;;;5061609;28;20535;-82
2023/03/19 05:41:33;;;;;;;2.67;2.33;;;23.10;52.50;;;;;;5045822;28;20494;-82
2023/03/19 05:44:05;;;;;;;3.00;2.80;;;23.10;52.60;;;;;;5048603;28;20527;-82
2023/03/19 05:46:45;;;;;;;2.60;2.40;;;23.10;52.60;;;;;;5054264;28;20856;-82
2023/03/19 05:49:13;;;;;;;2.50;2.30;;;23.10;52.60;;;;;;5053219;28;20467;-82
2023/03/19 05:51:42;;;;;;;2.33;2.23;;;23.10;52.60;;;;;;5053815;28;20832;-83
2023/03/19 05:54:10;;;;;;;2.53;2.33;;;23.10;52.60;;;;;;5039346;28;20459;-83
2023/03/19 05:56:57;;;;;;;3.30;2.17;;;23.10;52.60;;;;;;5053081;28;20523;-83
2023/03/19 05:59:44;;;;;;;3.13;2.93;;;23.10;52.60;;;;;;5060130;28;20443;-83
2023/03/19 06:02:41;;;;;;;2.37;2.27;;;23.10;52.60;;;;;;5073560;28;20484;-83
2023/03/19 06:05:36;;;;;;;2.40;2.27;;;23.10;52.60;;;;;;5035140;28;20517;-83
2023/03/19 06:08:26;;;;;;;2.57;2.37;;;23.10;52.60;;;;;;5077456;28;20556;-83
2023/03/19 06:11:18;;;;;;;2.50;2.40;;;23.10;52.60;;;;;;5044439;28;20454;-83
2023/03/19 06:13:52;;;;;;;2.53;2.33;;;23.10;52.60;;;;;;5060797;28;20832;-82
2023/03/19 06:16:20;;;;;;;2.20;2.00;;;23.10;52.50;;;;;;5040428;28;20469;-83
2023/03/19 06:18:56;;;;;;;2.20;2.10;;;23.10;52.50;;;;;;5070210;28;20459;-83
2023/03/19 06:21:28;;;;;;;2.40;2.20;;;23.10;52.50;;;;;;5071044;28;20817;-82
2023/03/19 06:23:59;;;;;;;2.10;2.00;;;23.10;52.50;;;;;;5052755;28;20498;-82
2023/03/19 06:26:34;;;;;;;2.40;2.30;;;23.10;52.50;;;;;;5053660;28;20465;-82
2023/03/19 06:29:07;;;;;;;2.70;2.33;;;23.10;52.60;;;;;;5045989;28;21025;-82
2023/03/19 06:31:38;;;;;;;2.20;2.10;;;23.10;52.60;;;;;;5053042;28;20466;-83
2023/03/19 06:34:30;;;;;;;2.60;2.40;;;23.00;52.60;;;;;;5069587;28;20454;-82
2023/03/19 06:36:59;;;;;;;2.10;2.00;;;23.00;52.60;;;;;;5047931;28;20561;-82
2023/03/19 06:39:27;;;;;;;2.10;2.00;;;23.00;52.60;;;;;;5055864;28;20845;-83
2023/03/19 06:41:55;;;;;;;2.20;1.87;;;23.00;52.60;;;;;;5068058;28;20548;-83
2023/03/19 06:44:26;;;;;;;2.00;1.90;;;23.00;52.60;;;;;;5048639;28;20473;-83
2023/03/19 06:46:54;;;;;;;1.80;1.70;;;23.00;52.60;;;;;;5071217;28;20473;-83
2023/03/19 06:49:23;;;;;;;2.53;2.00;;;23.00;52.60;;;;;;5052665;28;20491;-82
2023/03/19 06:51:52;;;;;;;2.10;2.00;;;23.00;52.60;;;;;;5070073;28;20451;-82
2023/03/19 06:54:20;;;;;;;1.97;1.87;;;23.00;52.60;;;;;;5069419;28;20450;-82
2023/03/19 06:56:49;;;;;;;2.20;2.10;;;23.00;52.60;;;;;;5068031;28;20545;-82
2023/03/19 06:59:17;;;;;;;1.80;1.70;;;23.00;52.60;;;;;;5066586;28;20579;-82
2023/03/19 07:01:46;;;;;;;2.20;2.10;;;23.00;52.60;;;;;;5073008;28;20502;-83
2023/03/19 07:04:14;;;;;;;1.80;1.70;;;23.00;52.60;;;;;;5082229;28;20953;-83
2023/03/19 07:06:42;;;;;;;3.30;1.90;;;23.00;52.60;;;;;;5078687;28;20940;-83
2023/03/19 07:09:12;;;;;;;2.27;2.17;;;23.10;52.60;;;;;;5069803;28;20533;-82
2023/03/19 07:11:41;;;;;;;2.10;2.00;;;23.00;52.60;;;;;;5058834;28;20542;-82
2023/03/19 07:14:10;;;;;;;2.00;1.90;;;23.00;52.60;;;;;;5066731;28;20963;-82
2023/03/19 07:16:38;;;;;;;1.83;1.73;;;23.00;52.60;;;;;;5061122;28;20546;-82
2023/03/19 07:19:06;;;;;;;2.00;1.80;;;23.10;52.60;;;;;;5067834;28;20461;-82
2023/03/19 07:21:34;;;;;;;1.90;1.80;;;23.10;52.60;;;;;;5070251;28;20450;-83
2023/03/19 07:24:02;;;;;;;1.60;1.50;;;23.10;52.60;;;;;;5068324;28;20493;-82
2023/03/19 07:26:32;;;;;;;2.47;2.20;;;23.10;52.60;;;;;;5050381;28;20469;-82
2023/03/19 07:29:00;;;;;;;1.87;1.77;;;23.10;52.60;;;;;;5071590;28;21457;-83
2023/03/19 07:31:28;;;;;;;1.67;1.60;;;23.10;52.60;;;;;;5073560;28;20972;-83
2023/03/19 07:33:57;;;;;;;1.93;1.83;;;23.10;52.60;;;;;;5063234;28;20470;-82
2023/03/19 07:36:25;;;;;;;1.87;1.77;;;23.10;52.60;;;;;;5055933;28;20461;-83
2023/03/19 07:38:53;;;;;;;1.67;1.57;;;23.10;52.60;;;;;;5069668;28;20458;-82
2023/03/19 07:41:21;;;;;;;2.30;2.10;;;23.10;52.60;;;;;;5058512;28;20455;-82
2023/03/19 07:43:51;;;;;;;1.70;1.60;;;23.10;52.50;;;;;;5068711;28;20511;-82
2023/03/19 07:46:19;;;;;;;1.67;1.50;;;23.10;52.50;;;;;;5052509;28;20562;-83
2023/03/19 07:48:47;;;;;;;1.93;1.83;;;23.10;52.50;;;;;;5064867;28;20462;-82
2023/03/19 07:51:15;;;;;;;1.83;1.73;;;23.10;52.50;;;;;;5072202;28;20459;-82
2023/03/19 07:53:43;;;;;;;2.03;1.90;;;23.10;52.50;;;;;;5064094;28;20489;-83
2023/03/19 07:56:12;;;;;;;1.57;1.47;;;23.10;52.50;;;;;;5060138;28;20461;-82
2023/03/19 07:58:40;;;;;;;1.60;1.50;;;23.10;52.50;;;;;;5053756;28;20458;-82
2023/03/19 08:01:10;;;;;;;1.10;1.10;;;23.20;52.50;;;;;;5070702;28;20461;-82
2023/03/19 08:03:38;;;;;;;1.40;1.30;;;23.10;52.50;;;;;;5063183;28;20457;-82
2023/03/19 08:06:06;;;;;;;3.13;1.83;;;23.20;52.50;;;;;;5052505;28;20566;-82
2023/03/19 08:08:35;;;;;;;1.63;1.53;;;23.10;52.50;;;;;;5053960;28;20481;-83
2023/03/19 08:11:03;;;;;;;1.60;1.50;;;23.10;52.50;;;;;;5049168;28;20813;-83
2023/03/19 08:13:31;;;;;;;1.80;1.70;;;23.10;52.50;;;;;;5053144;28;20954;-82
2023/03/19 08:16:00;;;;;;;2.50;1.73;;;23.10;52.50;;;;;;5052667;28;20936;-82
2023/03/19 08:18:29;;;;;;;1.07;1.07;;;23.10;52.50;;;;;;5050712;28;20534;-82
2023/03/19 08:20:57;;;;;;;1.60;1.47;;;23.10;52.50;;;;;;5053515;28;20454;-83
2023/03/19 08:23:25;;;;;;;1.70;1.60;;;23.10;52.50;;;;;;5050994;28;20464;-83
2023/03/19 08:25:55;;;;;;;1.83;1.73;;;23.10;52.50;;;;;;5053443;28;21014;-82
2023/03/19 08:28:24;;;;;;;1.47;1.37;;;23.10;52.50;;;;;;5060782;28;21020;-82
2023/03/19 08:30:52;;;;;;;1.70;1.60;;;23.10;52.50;;;;;;5055248;28;20450;-83
2023/03/19 08:33:20;;;;;;;1.33;1.33;;;23.10;52.50;;;;;;5052660;28;20453;-82
2023/03/19 08:35:50;;;;;;;1.93;1.83;;;23.10;52.50;;;;;;5034015;28;20551;-82
2023/03/19 08:38:19;;;;;;;1.70;1.60;;;23.20;52.50;;;;;;5056461;28;20983;-83
2023/03/19 08:40:47;;;;;;;1.73;1.63;;;23.20;52.50;;;;;;5072820;28;20446;-82
2023/03/19 08:43:16;;;;;;;1.70;1.60;;;23.10;52.50;;;;;;5072197;28;20451;-82
2023/03/19 08:45:44;;;;;;;1.80;1.70;;;23.10;52.50;;;;;;5072872;28;20505;-83
2023/03/19 08:48:12;;;;;;;2.60;1.67;;;23.10;52.50;;;;;;5052682;28;20544;-82
2023/03/19 08:50:41;;;;;;;2.83;2.17;;;23.10;52.80;;;;;;5072140;28;20450;-82
2023/03/19 08:53:11;;;;;;;4.43;2.10;;;23.20;53.90;;;;;;5071145;28;20454;-82
2023/03/19 08:55:39;;;;;;;7.70;1.97;;;23.20;54.30;;;;;;5070145;28;20453;-83
2023/03/19 08:58:07;;;;;;;4.20;2.10;;;23.20;54.20;;;;;;5075106;28;20457;-83
2023/03/19 09:00:35;;;;;;;4.20;1.80;;;23.20;54.10;;;;;;5071424;28;20454;-82
2023/03/19 09:03:03;;;;;;;4.53;2.30;;;23.20;54.00;;;;;;5061774;28;20505;-82
2023/03/19 09:05:32;;;;;;;9.10;2.47;;;23.20;53.90;;;;;;5074075;28;20474;-81
2023/03/19 09:08:00;;;;;;;12.30;3.07;;;23.20;54.00;;;;;;5060614;28;20460;-82
2023/03/19 09:10:30;;;;;;;2.37;2.10;;;23.20;53.90;;;;;;5080762;28;20532;-81
2023/03/19 09:12:58;;;;;;;4.47;2.37;;;23.30;54.00;;;;;;5070486;28;20454;-82
2023/03/19 09:15:27;;;;;;;3.97;2.43;;;23.30;54.10;;;;;;5067287;28;20450;-82
2023/03/19 09:17:55;;;;;;;2.10;1.90;;;23.30;54.30;;;;;;5066958;28;21014;-83
2023/03/19 09:20:23;;;;;;;4.20;3.23;;;23.30;54.40;;;;;;5083645;28;20470;-82
2023/03/19 09:22:51;;;;;;;3.97;2.43;;;23.30;54.50;;;;;;5059119;28;20554;-82
2023/03/19 09:25:21;;;;;;;3.60;2.07;;;23.40;54.30;;;;;;5067097;28;20570;-83
2023/03/19 09:27:51;;;;;;;7.63;2.27;;;23.40;54.30;;;;;;5075844;28;20533;-82
2023/03/19 09:30:19;;;;;;;8.30;2.80;;;23.40;54.40;;;;;;5060389;28;20508;-82
2023/03/19 09:32:47;;;;;;;2.97;2.33;;;23.50;54.40;;;;;;5061473;28;20462;-83
2023/03/19 09:35:16;;;;;;;2.33;2.13;;;23.50;54.40;;;;;;5059583;28;20456;-83
2023/03/19 09:37:44;;;;;;;7.20;2.77;;;23.50;54.30;;;;;;5070304;28;20457;-83
2023/03/19 09:40:21;;;;;;;3.47;2.40;;;23.50;54.30;;;;;;5062939;28;20457;-82
2023/03/19 09:43:05;;;;;;;2.80;2.37;;;23.50;54.30;;;;;;5066422;28;20873;-82
2023/03/19 09:45:35;;;;;;;4.27;2.30;;;23.50;54.20;;;;;;5060145;28;20482;-83
2023/03/19 09:48:08;;;;;;;4.40;3.10;;;23.50;54.20;;;;;;5051594;28;20543;-82
2023/03/19 09:50:39;;;;;;;2.93;2.63;;;23.50;54.20;;;;;;5058857;28;20481;-85
2023/03/19 09:53:16;;;;;;;2.93;2.23;;;23.50;54.20;;;;;;5054706;28;20564;-81
2023/03/19 09:55:47;;;;;;;4.43;2.20;;;23.50;54.10;;;;;;5061352;28;20463;-81
2023/03/19 09:58:19;;;;;;;4.90;3.10;;;23.50;54.10;;;;;;5061616;28;20462;-81
2023/03/19 10:00:50;;;;;;;4.57;2.97;;;23.50;54.10;;;;;;5054086;28;20455;-82
2023/03/19 10:03:33;;;;;;;5.70;2.67;;;23.60;54.10;;;;;;5038576;28;20872;-82
2023/03/19 10:06:16;;;;;;;5.77;2.83;;;23.60;54.10;;;;;;5054130;28;20474;-83
2023/03/19 10:08:57;;;;;;;4.60;2.23;;;23.60;54.10;;;;;;5052535;28;20501;-82
2023/03/19 10:11:40;;;;;;;3.53;2.37;;;23.60;54.20;;;;;;5042276;28;20509;-82
2023/03/19 10:14:41;;;;;;;6.90;3.70;;;23.60;54.30;;;;;;5054373;28;20551;-80
2023/03/19 10:17:15;;;;;;;5.13;2.53;;;23.60;54.90;;;;;;5058381;28;21007;-82
2023/03/19 10:19:47;;;;;;;3.27;2.50;;;23.60;54.70;;;;;;5055802;28;20555;-79
2023/03/19 10:22:19;;;;;;;3.50;2.73;;;23.60;54.80;;;;;;5060152;28;20494;-81
2023/03/19 10:24:50;;;;;;;2.87;2.67;;;23.60;55.00;;;;;;5056906;28;20487;-83
2023/03/19 10:27:20;;;;;;;4.80;2.60;;;23.60;55.00;;;;;;5060225;28;20481;-81
2023/03/19 10:29:50;;;;;;;6.30;2.80;;;23.60;55.20;;;;;;5053258;28;20471;-80
2023/03/19 10:32:20;;;;;;;5.87;2.40;;;23.70;55.40;;;;;;5055078;28;20460;-80
2023/03/19 10:34:52;;;;;;;4.07;2.90;;;23.70;55.30;;;;;;5060964;28;20486;-80
2023/03/19 10:37:22;;;;;;;5.10;3.03;;;23.70;55.40;;;;;;5060153;28;20789;-79
2023/03/19 10:39:52;;;;;;;5.63;2.43;;;23.70;55.50;;;;;;5057540;28;20497;-81
2023/03/19 10:42:43;;;;;;;7.00;3.10;;;23.70;55.50;;;;;;5062198;28;21012;-80
2023/03/19 10:45:24;;;;;;;3.57;2.70;;;23.70;55.60;;;;;;5059828;28;20473;-80
2023/03/19 10:47:54;;;;;;;4.43;2.73;;;23.80;55.40;;;;;;5068665;28;20510;-80
2023/03/19 10:50:28;;;;;;;5.53;3.37;;;23.80;55.10;;;;;;5060755;28;20512;-80
2023/03/19 10:53:05;;;;;;;5.67;3.37;;;23.80;55.00;;;;;;5062357;28;20460;-79
2023/03/19 10:55:34;;;;;;;3.90;3.10;;;23.90;54.90;;;;;;5065831;28;20998;-79
2023/03/19 10:58:05;;;;;;;7.23;4.57;;;24.00;55.00;;;;;;5066229;28;20998;-79
2023/03/19 11:00:35;;;;;;;5.40;3.90;;;24.20;54.80;;;;;;5056510;28;20478;-79
2023/03/19 11:03:04;;;;;;;6.23;2.83;;;24.30;54.30;;;;;;5053207;28;20464;-79
2023/03/19 11:05:34;;;;;;;7.73;3.17;;;24.50;53.80;;;;;;5067590;28;20479;-79
2023/03/19 11:08:05;;;;;;;5.70;3.10;;;24.70;53.40;;;;;;5063361;28;20522;-79
2023/03/19 11:10:35;;;;;;;7.37;3.33;;;24.90;53.10;;;;;;5069910;28;20804;-79
2023/03/19 11:13:06;;;;;;;10.60;3.80;;;25.00;52.80;;;;;;5069865;28;20519;-80
2023/03/19 11:15:37;;;;;;;7.67;3.33;;;25.00;52.80;;;;;;5063771;28;20930;-79
2023/03/19 11:18:08;;;;;;;7.33;3.00;;;25.00;52.90;;;;;;5070246;28;20535;-80
2023/03/19 11:20:38;;;;;;;6.27;3.50;;;25.10;52.80;;;;;;5070661;28;20424;-81
2023/03/19 11:23:12;;;;;;;5.83;3.00;;;25.10;52.70;;;;;;5074113;28;20448;-81
2023/03/19 11:25:42;;;;;;;5.47;2.60;;;25.20;52.50;;;;;;5074997;28;20503;-81
2023/03/19 11:28:13;;;;;;;5.33;2.90;;;25.20;52.20;;;;;;5067065;28;20468;-79
2023/03/19 11:30:53;;;;;;;5.87;3.20;;;25.30;52.10;;;;;;5059356;28;21351;-80
2023/03/19 11:33:46;;;;;;;3.73;2.80;;;25.30;52.10;;;;;;5071041;28;20466;-79
2023/03/19 11:36:22;;;;;;;9.43;3.10;;;25.30;51.90;;;;;;5070298;28;20453;-79
2023/03/19 11:39:08;;;;;;;6.63;2.93;;;25.40;51.90;;;;;;5069159;28;20491;-79
2023/03/19 11:41:51;;;;;;;9.13;2.87;;;25.40;51.90;;;;;;5055357;28;20720;-79
2023/03/19 11:44:25;;;;;;;7.13;2.93;;;25.40;51.80;;;;;;5074109;28;20457;-79
2023/03/19 11:47:01;;;;;;;3.97;2.97;;;25.50;51.60;;;;;;5085085;28;20522;-79
2023/03/19 11:49:52;;;;;;;4.50;2.70;;;25.60;51.30;;;;;;5043670;28;20926;-79
2023/03/19 11:52:29;;;;;;;6.40;3.33;;;25.70;51.20;;;;;;5048450;28;20462;-80
2023/03/19 11:55:18;;;;;;;10.13;3.13;;;25.70;51.20;;;;;;5073962;28;20445;-79
2023/03/19 11:58:04;;;;;;;9.50;4.00;;;25.70;51.20;;;;;;5070765;28;20870;-79
2023/03/19 12:00:39;;;;;;;9.00;3.17;;;25.70;51.20;;;;;;5072469;28;20495;-79
2023/03/19 12:03:36;;;;;;;10.63;3.00;;;25.70;51.30;;;;;;5061256;28;20551;-80
2023/03/19 12:06:13;;;;;;;4.90;2.70;;;25.70;51.20;;;;;;5084419;28;20457;-80
2023/03/19 12:08:49;;;;;;;5.60;2.60;;;25.70;51.20;;;;;;5084554;28;20474;-84
2023/03/19 12:11:24;;;;;;;7.53;4.27;;;25.80;51.10;;;;;;5078721;28;20448;-79
2023/03/19 12:14:19;;;;;;;3.90;2.60;;;25.80;51.20;;;;;;5091219;28;20994;-78
2023/03/19 12:17:06;;;;;;;4.00;2.53;;;25.80;51.10;;;;;;5069929;28;20505;-78
2023/03/19 12:19:49;;;;;;;3.87;2.50;;;25.70;51.20;;;;;;5081261;28;20943;-78
2023/03/19 12:22:30;;;;;;;4.43;2.57;;;25.70;51.20;;;;;;5074438;28;20448;-77
2023/03/19 12:25:17;;;;;;;3.00;2.47;;;25.60;51.30;;;;;;5042733;28;20514;-77
2023/03/19 12:27:51;;;;;;;7.93;3.53;;;25.50;51.60;;;;;;5052971;28;20499;-78
2023/03/19 12:30:29;;;;;;;4.60;2.63;;;25.40;51.90;;;;;;5053083;28;20464;-78
2023/03/19 12:33:18;;;;;;;6.33;2.60;;;25.30;52.10;;;;;;5053311;28;20446;-79
2023/03/19 12:35:50;;;;;;;3.40;2.33;;;25.20;52.10;;;;;;5052642;28;20541;-77
2023/03/19 12:38:24;;;;;;;4.33;2.77;;;25.20;52.10;;;;;;5045652;28;20462;-77
2023/03/19 12:40:58;;;;;;;6.93;2.73;;;25.10;52.30;;;;;;5050023;28;20442;-77
2023/03/19 12:43:32;;;;;;;5.23;4.03;;;25.10;52.50;;;;;;5050967;28;21348;-78
2023/03/19 12:46:06;;;;;;;7.53;2.70;;;25.10;52.40;;;;;;5051851;28;20541;-77
2023/03/19 12:48:41;;;;;;;4.10;2.40;;;25.10;52.50;;;;;;5050182;28;20960;-78
2023/03/19 12:51:15;;;;;;;10.83;2.60;;;25.10;52.60;;;;;;5036396;28;20561;-79
2023/03/19 12:53:48;;;;;;;4.17;2.80;;;25.10;52.90;;;;;;5048041;28;20459;-79
2023/03/19 12:56:23;;;;;;;6.07;2.73;;;25.20;52.80;;;;;;5050489;28;21105;-79
2023/03/19 12:58:59;;;;;;;4.47;2.43;;;25.20;52.80;;;;;;5039230;28;20450;-77
2023/03/19 13:01:33;;;;;;;5.33;2.70;;;25.30;52.70;;;;;;5052583;28;20481;-78
2023/03/19 13:04:10;;;;;;;5.83;2.87;;;25.30;52.50;;;;;;5043040;28;20850;-78
2023/03/19 13:06:48;;;;;;;8.60;2.50;;;25.40;52.50;;;;;;5038435;28;20447;-80
2023/03/19 13:09:26;;;;;;;5.50;3.47;;;25.40;52.40;;;;;;5054795;28;20979;-80
2023/03/19 13:12:00;;;;;;;3.00;2.43;;;25.50;52.30;;;;;;5055932;28;20436;-78